Aérodrome :
LOGIN :

S'inscrire | Disclaimer

   EN    FR    IT 

 










Légende :    VFR   VFR Marginal   IFR   IFR Intensif   IFR Très Intensif
Visi : 
Plafond : 
>= 8 km
>= 3000ft
5 à 8 km
1000 à 3000 ft
1500m à 5 km
500 à 1000 ft
800 à 1500m
200 à 500 ft
< 800m
< 200 ft
Symboles :   Orages  Brouillard  Fortes neiges  Fortes précipitations  Vent > 20 kt
SIGMETs :   Divers  Orages  Givrage  Turbulence  Onde Orograph.  Cendres Volcan.






- Altitude de l'aérodrome : 215 ft
- Code IATA : ABZ


EGPD - Aberdeen / Dyce

DERNIER METAR :
  • 140620Z AUTO 29012KT 9999 FEW034/// //////TCU 02/00 Q1004 NOSIG

METARs EXPIRÉS :
  • 140550Z AUTO 30012KT 9999 //////TCU 01/00 Q1004 TEMPO SHRASN
  • 140520Z AUTO 30011KT 9999 SCT036/// //////TCU 01/M00 Q1003 TEMPO SHRASN
  • 140450Z AUTO 29012KT 9999 //////TCU 01/M00 Q1003 NOSIG
  • 140420Z AUTO 31013KT 9999 FEW032/// SCT049/// //////TCU 01/M00 Q1003 NOSIG
  • 140350Z AUTO 32009KT 9999 FEW015 BKN026 BKN032 01/M00 Q1002

TAF TAF EGPD
Valide du 14 à 06h jusqu'au 15 à 06h UTC


140503Z 1406/1506 33009KT 9999 SCT020
PROB40
TEMPO 1406/1424 36015G25KT 7000 SHRA BKN014
BECMG 1503/1506 03010KT



MET'MAP, la Météo Aéronautique d'un coup d'oeil ! - Copyright ORBIFLY Décembre 2007 - Disclaimer

ORBIFLY MET'MAP TEAM :

Programmation & Développement : Alexandra Zaïnal
Conception & Développement : Baudouin d'Aumeries
Co-Programmation & Développement : Marc-Olivier Méhu
Soutien technique & logistique : Manuel Goepfert

Contact : metmap@orbifly.com




SOURCES & CREDITS :

   NOAA